Time;durP1;ratioP1;P1;durP2;ratioP2;P2;SDS_P1;SDS_P2;PMS_P1;PMS_P2;Temp;Humidity;BMP_temperature;BMP_pressure;BME280_temperature;BME280_humidity;BME280_pressure;Samples;Min_cycle;Max_cycle;Signal;HPM_P1;HPM_P2
2023/02/12 00:01:19;;;;;;;173.23;49.45;;;;;;;3.14;100.00;101439.91;5044819;28;20064;-59
2023/02/12 00:03:44;;;;;;;146.13;43.92;;;;;;;3.01;100.00;101431.41;5037723;28;20021;-59
2023/02/12 00:06:10;;;;;;;160.05;47.70;;;;;;;2.97;100.00;101430.00;5038641;28;20028;-59
2023/02/12 00:08:36;;;;;;;178.82;49.05;;;;;;;3.06;100.00;101442.44;5045209;28;20064;-59
2023/02/12 00:11:17;;;;;;;195.27;53.40;;;;;;;3.05;100.00;101429.34;5035335;28;20041;-59
2023/02/12 00:13:43;;;;;;;175.07;49.47;;;;;;;2.99;100.00;101438.66;5039784;28;20024;-59
2023/02/12 00:16:11;;;;;;;192.60;51.00;;;;;;;3.02;100.00;101435.72;5072836;28;20642;-60
2023/02/12 00:18:36;;;;;;;183.73;51.20;;;;;;;3.02;100.00;101435.72;5036929;28;20062;-59
2023/02/12 00:21:02;;;;;;;182.65;50.13;;;;;;;2.99;100.00;101430.72;5039921;28;20021;-60
2023/02/12 00:23:27;;;;;;;163.25;47.95;;;;;;;3.03;100.00;101416.22;5039526;28;20111;-59
2023/02/12 00:25:53;;;;;;;160.18;47.78;;;;;;;3.01;100.00;101418.16;5037461;28;20033;-59
2023/02/12 00:28:18;;;;;;;175.00;48.00;;;;;;;2.93;100.00;101429.47;5041605;28;20104;-60
2023/02/12 00:30:44;;;;;;;180.35;51.63;;;;;;;2.89;100.00;101424.56;5048187;28;20035;-59
2023/02/12 00:33:09;;;;;;;169.27;48.22;;;;;;;2.96;100.00;101426.53;5045107;28;20017;-59
2023/02/12 00:35:35;;;;;;;171.05;48.33;;;;;;;2.88;100.00;101422.91;5048257;28;20376;-59
2023/02/12 00:38:00;;;;;;;167.00;48.50;;;;;;;2.89;100.00;101424.56;5038494;28;20538;-59
2023/02/12 00:40:26;;;;;;;174.30;50.45;;;;;;;2.91;100.00;101428.75;5043706;28;20510;-59
2023/02/12 00:42:51;;;;;;;154.40;46.65;;;;;;;2.92;100.00;101419.00;5036248;28;20021;-60
2023/02/12 00:45:16;;;;;;;173.13;47.22;;;;;;;2.92;100.00;101422.50;5045711;28;20105;-60
2023/02/12 00:47:42;;;;;;;172.70;47.60;;;;;;;2.95;100.00;101421.38;5035001;28;20037;-60
2023/02/12 00:50:08;;;;;;;168.05;46.97;;;;;;;2.94;100.00;101427.66;5044260;28;20134;-59
2023/02/12 00:52:33;;;;;;;163.35;47.08;;;;;;;2.97;100.00;101428.22;5051959;28;20074;-60
2023/02/12 00:54:59;;;;;;;168.20;46.65;;;;;;;3.04;100.00;101428.47;5045137;28;20045;-59
2023/02/12 00:57:24;;;;;;;157.55;43.58;;;;;;;3.21;100.00;101429.59;5048462;28;20082;-60
2023/02/12 00:59:50;;;;;;;171.35;46.70;;;;;;;3.16;100.00;101430.00;5037037;28;20037;-59
2023/02/12 01:02:15;;;;;;;193.05;51.30;;;;;;;3.08;100.00;101435.19;5038375;28;20061;-59
2023/02/12 01:04:40;;;;;;;191.77;49.92;;;;;;;3.16;100.00;101427.38;5045805;28;20316;-59
2023/02/12 01:07:06;;;;;;;170.55;47.80;;;;;;;3.20;100.00;101434.06;5040354;28;20097;-59
2023/02/12 01:09:31;;;;;;;172.80;45.03;;;;;;;3.16;100.00;101437.97;5041025;28;20041;-59
2023/02/12 01:11:57;;;;;;;189.57;50.33;;;;;;;3.23;100.00;101435.59;5041311;28;20058;-59
2023/02/12 01:14:22;;;;;;;174.10;49.72;;;;;;;3.17;100.00;101436.16;5041977;28;20033;-60
2023/02/12 01:16:47;;;;;;;177.15;47.75;;;;;;;3.17;100.00;101444.09;5048926;28;20028;-60
2023/02/12 01:19:13;;;;;;;172.20;46.95;;;;;;;3.12;100.00;101447.19;5038339;28;20104;-60
2023/02/12 01:21:38;;;;;;;185.38;52.35;;;;;;;3.02;100.00;101446.31;5043640;28;20412;-60
2023/02/12 01:24:04;;;;;;;177.05;52.05;;;;;;;2.94;100.00;101443.53;5041977;28;20451;-60
2023/02/12 01:26:31;;;;;;;194.15;54.10;;;;;;;2.97;100.00;101437.97;5045126;28;20048;-59
2023/02/12 01:29:00;;;;;;;196.60;53.08;;;;;;;3.15;100.00;101446.91;5049954;28;20376;-59
2023/02/12 01:31:27;;;;;;;191.90;53.67;;;;;;;3.18;100.00;101443.13;5037663;28;20024;-59
2023/02/12 01:33:54;;;;;;;179.95;51.33;;;;;;;3.11;100.00;101440.19;5069783;28;20018;-59
2023/02/12 01:36:19;;;;;;;175.60;51.70;;;;;;;3.16;100.00;101439.78;5043351;28;20305;-59
2023/02/12 01:38:45;;;;;;;193.32;50.13;;;;;;;3.16;100.00;101443.25;5042792;28;20495;-59
2023/02/12 01:41:14;;;;;;;193.82;54.47;;;;;;;3.19;100.00;101442.16;5047198;28;20021;-59
2023/02/12 01:43:39;;;;;;;187.02;51.72;;;;;;;3.13;100.00;101454.16;5040749;28;20020;-59
2023/02/12 01:46:05;;;;;;;203.75;51.10;;;;;;;3.12;100.00;101441.88;5040605;28;20033;-60
2023/02/12 01:48:44;;;;;;;197.23;51.58;;;;;;;3.22;100.00;101429.47;5043476;28;20032;-59
2023/02/12 01:51:11;;;;;;;183.95;49.80;;;;;;;3.26;100.00;101426.53;5036924;28;20025;-59
2023/02/12 01:53:47;;;;;;;187.40;49.60;;;;;;;3.30;100.00;101423.47;5054225;28;20137;-59
2023/02/12 01:56:12;;;;;;;173.57;49.25;;;;;;;3.37;100.00;101429.88;5027771;28;20029;-59
2023/02/12 01:58:40;;;;;;;193.80;51.15;;;;;;;3.31;100.00;101419.81;5038685;28;20474;-60
2023/02/12 02:01:07;;;;;;;191.35;52.47;;;;;;;3.33;100.00;101412.56;5039376;28;20108;-59
2023/02/12 02:03:33;;;;;;;192.32;53.58;;;;;;;3.33;100.00;101411.75;5039025;28;20025;-59
2023/02/12 02:06:00;;;;;;;191.63;51.90;;;;;;;3.34;100.00;101416.06;5043237;28;20044;-59
2023/02/12 02:08:25;;;;;;;192.93;50.58;;;;;;;3.37;100.00;101416.63;5060401;28;20024;-59
2023/02/12 02:10:51;;;;;;;190.60;51.25;;;;;;;3.41;100.00;101411.84;5068136;28;20047;-59
2023/02/12 02:16:09;;;;;;;181.70;51.00;;;;;;;3.46;100.00;101413.09;5021749;28;20136;-59
2023/02/12 02:18:41;;;;;;;180.13;51.97;;;;;;;3.43;100.00;101418.69;5036678;28;20068;-60
2023/02/12 02:21:31;;;;;;;164.10;46.45;;;;;;;3.37;100.00;101413.09;5041951;28;20174;-59
2023/02/12 02:24:35;;;;;;;179.02;51.03;;;;;;;3.23;100.00;101406.44;5039368;28;20025;-60
2023/02/12 02:27:19;;;;;;;168.95;47.38;;;;;;;3.39;100.00;101411.16;5025507;28;20112;-59
2023/02/12 02:30:09;;;;;;;183.27;50.78;;;;;;;3.33;100.00;101411.75;5045369;28;20598;-59
2023/02/12 02:33:09;;;;;;;187.65;51.83;;;;;;;3.39;100.00;101413.81;5039405;28;20166;-60
2023/02/12 02:35:40;;;;;;;179.48;48.80;;;;;;;3.31;100.00;101405.75;5040681;28;20111;-59
2023/02/12 02:38:22;;;;;;;175.63;49.22;;;;;;;3.23;100.00;101420.53;5044742;28;20088;-60
2023/02/12 02:41:07;;;;;;;179.00;48.00;;;;;;;3.20;100.00;101420.81;5035455;28;20169;-60
2023/02/12 02:44:25;;;;;;;188.73;51.90;;;;;;;3.24;100.00;101414.28;5026476;28;20534;-59
2023/02/12 02:46:51;;;;;;;177.07;50.90;;;;;;;3.38;100.00;101410.31;5024945;28;20044;-59
2023/02/12 02:49:20;;;;;;;194.70;50.22;;;;;;;3.36;100.00;101416.75;5044298;28;20024;-59
2023/02/12 02:51:47;;;;;;;182.98;49.35;;;;;;;3.40;100.00;101418.16;5054271;28;20032;-59
2023/02/12 02:54:20;;;;;;;184.60;50.00;;;;;;;3.43;100.00;101412.56;5076531;28;20073;-60
2023/02/12 02:56:47;;;;;;;173.93;46.65;;;;;;;3.43;100.00;101408.09;5036134;28;20021;-60
2023/02/12 02:59:20;;;;;;;182.07;49.65;;;;;;;3.41;100.00;101409.22;5037791;28;20112;-59
2023/02/12 03:01:51;;;;;;;178.65;48.20;;;;;;;3.38;100.00;101410.31;5029129;28;20140;-60
2023/02/12 03:04:22;;;;;;;193.55;50.10;;;;;;;3.39;100.00;101414.63;5061985;28;20041;-60
2023/02/12 03:06:51;;;;;;;195.77;49.47;;;;;;;3.35;100.00;101409.78;5044887;28;20029;-59
2023/02/12 03:09:20;;;;;;;173.48;49.67;;;;;;;3.37;100.00;101406.03;5043664;28;20067;-60
2023/02/12 03:11:45;;;;;;;201.02;51.05;;;;;;;3.39;100.00;101406.69;5044283;28;20029;-60
2023/02/12 03:14:24;;;;;;;165.20;50.38;;;;;;;3.30;100.00;101406.72;5044757;28;20024;-59
2023/02/12 03:17:07;;;;;;;185.23;51.92;;;;;;;3.35;100.00;101399.19;5042934;28;20032;-60
2023/02/12 03:19:38;;;;;;;182.00;52.20;;;;;;;3.37;100.00;101402.50;5043485;28;20095;-59
2023/02/12 03:22:07;;;;;;;189.57;52.20;;;;;;;3.39;100.00;101405.84;5048779;28;20053;-59
2023/02/12 03:24:53;;;;;;;201.73;52.70;;;;;;;3.39;100.00;101400.56;5028843;28;20040;-59
2023/02/12 03:27:26;;;;;;;198.95;50.53;;;;;;;3.40;100.00;101396.94;5047124;28;20065;-59
2023/02/12 03:29:52;;;;;;;194.60;52.47;;;;;;;3.39;100.00;101398.72;5044855;28;20541;-60
2023/02/12 03:32:35;;;;;;;181.77;52.08;;;;;;;3.36;100.00;101395.53;5055746;28;20029;-59
2023/02/12 03:35:13;;;;;;;196.23;52.88;;;;;;;3.32;100.00;101388.84;5049527;28;20036;-59
2023/02/12 03:38:08;;;;;;;168.48;49.95;;;;;;;3.33;100.00;101393.19;5049630;28;20033;-59
2023/02/12 03:40:36;;;;;;;167.05;48.35;;;;;;;3.26;100.00;101394.72;5038745;28;20040;-59
2023/02/12 03:43:06;;;;;;;175.13;50.13;;;;;;;3.24;100.00;101400.16;5029071;28;20063;-59
2023/02/12 03:45:48;;;;;;;197.10;52.40;;;;;;;3.28;100.00;101400.72;5043771;28;20202;-59
2023/02/12 03:48:21;;;;;;;171.57;48.80;;;;;;;3.30;100.00;101396.13;5047694;28;20634;-59
2023/02/12 03:50:53;;;;;;;188.07;45.63;;;;;;;3.37;100.00;101402.50;5043650;28;20136;-59
2023/02/12 03:53:18;;;;;;;196.82;51.47;;;;;;;3.36;100.00;101395.53;5041595;28;20067;-60
2023/02/12 03:55:44;;;;;;;188.13;51.30;;;;;;;3.33;100.00;101401.13;5037762;28;20029;-59
2023/02/12 03:58:11;;;;;;;181.55;50.38;;;;;;;3.31;100.00;101397.78;5043946;28;20032;-59
2023/02/12 04:00:37;;;;;;;177.20;51.72;;;;;;;3.32;100.00;101402.09;5028748;28;20585;-60
2023/02/12 04:03:03;;;;;;;186.00;49.03;;;;;;;3.37;100.00;101399.84;5042376;28;20040;-60
2023/02/12 04:05:29;;;;;;;203.05;52.40;;;;;;;3.42;100.00;101405.56;5035713;28;20479;-59
2023/02/12 04:07:54;;;;;;;195.00;52.75;;;;;;;3.48;100.00;101405.00;5039191;28;20035;-60
2023/02/12 04:10:30;;;;;;;191.93;52.92;;;;;;;3.49;100.00;101395.22;5075335;28;20491;-60
2023/02/12 04:13:17;;;;;;;209.45;57.35;;;;;;;3.37;100.00;101402.50;5058269;28;20035;-59
2023/02/12 04:15:48;;;;;;;201.80;53.20;;;;;;;3.36;100.00;101403.50;5037395;28;20033;-59
2023/02/12 04:18:19;;;;;;;186.77;52.97;;;;;;;3.39;100.00;101413.81;5035275;28;20022;-59
2023/02/12 04:21:11;;;;;;;193.75;53.83;;;;;;;3.39;100.00;101403.22;5026166;28;20059;-59
2023/02/12 04:24:09;;;;;;;208.50;53.78;;;;;;;3.38;100.00;101409.50;5042682;28;20028;-60
2023/02/12 04:26:48;;;;;;;188.70;50.08;;;;;;;3.38;100.00;101406.84;5024369;28;20048;-60
2023/02/12 04:29:19;;;;;;;206.30;52.47;;;;;;;3.35;100.00;101415.91;5044214;28;20412;-59
2023/02/12 04:32:22;;;;;;;208.00;57.42;;;;;;;3.32;100.00;101410.06;5041759;28;20117;-59
2023/02/12 04:35:04;;;;;;;190.93;50.10;;;;;;;3.30;100.00;101419.97;5028854;28;20382;-59
2023/02/12 04:37:54;;;;;;;213.98;55.80;;;;;;;3.31;100.00;101416.34;5028064;28;20434;-59
2023/02/12 04:40:19;;;;;;;205.45;55.53;;;;;;;3.33;100.00;101420.53;5037720;28;20028;-59
2023/02/12 04:42:49;;;;;;;205.48;55.13;;;;;;;3.36;100.00;101417.59;5027168;28;20033;-59
2023/02/12 04:45:23;;;;;;;221.13;57.23;;;;;;;3.40;100.00;101418.16;5024892;28;20104;-59
2023/02/12 04:47:49;;;;;;;192.30;52.90;;;;;;;3.42;100.00;101424.13;5021742;28;20033;-59
2023/02/12 04:50:14;;;;;;;207.57;52.90;;;;;;;3.42;100.00;101426.78;5043065;28;20052;-59
2023/02/12 04:52:39;;;;;;;202.45;54.53;;;;;;;3.42;100.00;101427.63;5036443;28;20061;-59
2023/02/12 04:55:05;;;;;;;202.32;52.00;;;;;;;3.40;100.00;101423.44;5041662;28;20044;-60
2023/02/12 04:57:31;;;;;;;184.82;49.78;;;;;;;3.43;100.00;101418.69;5042708;28;20049;-60
2023/02/12 04:59:56;;;;;;;198.52;53.13;;;;;;;3.48;100.00;101425.38;5030746;28;20030;-60
2023/02/12 05:02:21;;;;;;;198.52;51.90;;;;;;;3.47;100.00;101424.56;5041299;28;20032;-60
2023/02/12 05:04:49;;;;;;;189.00;51.78;;;;;;;3.48;100.00;101426.22;5036930;28;20515;-60
2023/02/12 05:07:14;;;;;;;194.30;51.17;;;;;;;3.47;100.00;101424.56;5042839;28;20049;-59
2023/02/12 05:09:39;;;;;;;197.80;51.72;;;;;;;3.45;100.00;101431.81;5026839;28;20033;-59
2023/02/12 05:12:05;;;;;;;189.30;51.80;;;;;;;3.50;100.00;101418.97;5039506;28;20021;-60
2023/02/12 05:14:30;;;;;;;198.50;51.30;;;;;;;3.50;100.00;101418.97;5042330;28;20106;-60
2023/02/12 05:16:56;;;;;;;186.60;52.28;;;;;;;3.54;100.00;101422.97;5042723;28;20025;-59
2023/02/12 05:19:21;;;;;;;188.52;53.00;;;;;;;3.51;100.00;101430.41;5036370;28;20024;-60
2023/02/12 05:21:49;;;;;;;203.88;55.40;;;;;;;3.47;100.00;101424.56;5044273;28;20828;-60
2023/02/12 05:24:14;;;;;;;188.10;52.30;;;;;;;3.37;100.00;101427.22;5047535;28;20040;-59
2023/02/12 05:26:39;;;;;;;197.82;53.05;;;;;;;3.49;100.00;101429.69;5041633;28;20028;-59
2023/02/12 05:29:05;;;;;;;182.68;50.42;;;;;;;3.60;100.00;101434.88;5035581;28;20707;-59
2023/02/12 05:31:30;;;;;;;175.88;49.33;;;;;;;3.66;100.00;101431.63;5043610;28;20041;-59
2023/02/12 05:33:56;;;;;;;187.85;49.85;;;;;;;3.71;100.00;101431.19;5039234;28;20029;-60
2023/02/12 05:36:22;;;;;;;184.77;46.95;;;;;;;3.76;100.00;101434.25;5042787;28;20032;-60
2023/02/12 05:38:47;;;;;;;200.35;54.50;;;;;;;3.68;100.00;101432.31;5042781;28;20143;-59
2023/02/12 05:41:17;;;;;;;187.75;49.40;;;;;;;3.65;100.00;101440.56;5039343;28;20132;-59
2023/02/12 05:43:44;;;;;;;185.15;51.72;;;;;;;3.63;100.00;101435.41;5045449;28;20067;-60
2023/02/12 05:46:09;;;;;;;197.95;53.65;;;;;;;3.60;100.00;101434.88;5042373;28;20091;-59
2023/02/12 05:48:35;;;;;;;191.48;50.78;;;;;;;3.57;100.00;101438.63;5047225;28;20021;-59
2023/02/12 05:51:05;;;;;;;193.43;52.22;;;;;;;3.57;100.00;101435.97;5035585;28;20547;-59
2023/02/12 05:53:30;;;;;;;199.10;51.50;;;;;;;3.62;100.00;101440.84;5037910;28;20544;-59
2023/02/12 05:56:08;;;;;;;177.95;51.42;;;;;;;3.60;100.00;101443.66;5038454;28;20116;-59
2023/02/12 05:58:33;;;;;;;190.85;51.47;;;;;;;3.54;100.00;101446.03;5032177;28;20193;-60
2023/02/12 06:00:58;;;;;;;182.23;49.72;;;;;;;3.53;100.00;101447.84;5043034;28;20025;-59
2023/02/12 06:03:24;;;;;;;199.75;54.50;;;;;;;3.56;100.00;101454.69;5035963;28;20479;-59
2023/02/12 06:05:50;;;;;;;191.25;48.58;;;;;;;3.58;100.00;101450.06;5037416;28;20022;-59
2023/02/12 06:08:15;;;;;;;178.65;49.38;;;;;;;3.57;100.00;101451.91;5039649;28;20048;-59
2023/02/12 06:10:41;;;;;;;186.00;50.83;;;;;;;3.55;100.00;101453.00;5018088;28;20030;-59
2023/02/12 06:13:06;;;;;;;175.02;48.95;;;;;;;3.49;100.00;101443.78;5042110;28;20071;-60
2023/02/12 06:15:32;;;;;;;179.80;49.85;;;;;;;3.47;100.00;101451.06;5044239;28;20463;-59
2023/02/12 06:17:57;;;;;;;174.23;47.95;;;;;;;3.46;100.00;101455.50;5069293;28;20049;-59
2023/02/12 06:20:23;;;;;;;171.00;49.03;;;;;;;3.45;100.00;101447.72;5037720;28;20029;-60
2023/02/12 06:22:48;;;;;;;190.00;51.30;;;;;;;3.44;100.00;101461.94;5047213;28;20029;-59
2023/02/12 06:25:13;;;;;;;174.70;50.10;;;;;;;3.46;100.00;101454.69;5041131;28;20040;-59
2023/02/12 06:27:39;;;;;;;186.50;51.42;;;;;;;3.49;100.00;101461.53;5045347;28;20072;-59
2023/02/12 06:30:05;;;;;;;170.65;49.45;;;;;;;3.44;100.00;101465.44;5044158;28;20025;-59
2023/02/12 06:32:30;;;;;;;160.32;48.30;;;;;;;3.35;100.00;101458.34;5040844;28;20037;-60
2023/02/12 06:34:56;;;;;;;173.02;48.53;;;;;;;3.36;100.00;101464.47;5040088;28;20075;-60
2023/02/12 06:37:21;;;;;;;173.75;48.92;;;;;;;3.36;100.00;101459.16;5042165;28;20363;-59
2023/02/12 06:39:47;;;;;;;169.05;48.67;;;;;;;3.33;100.00;101465.59;5045987;28;20376;-59
2023/02/12 06:42:12;;;;;;;166.63;51.22;;;;;;;3.35;100.00;101474.25;5052325;28;20029;-59
2023/02/12 06:44:37;;;;;;;164.98;50.92;;;;;;;3.32;100.00;101476.31;5039812;28;20379;-60
2023/02/12 06:47:03;;;;;;;158.27;49.42;;;;;;;3.33;100.00;101470.88;5052020;28;20464;-59
2023/02/12 06:49:28;;;;;;;167.43;51.33;;;;;;;3.35;100.00;101471.59;5043968;28;20029;-59
2023/02/12 06:51:54;;;;;;;167.45;52.10;;;;;;;3.41;100.00;101478.13;5042431;28;20037;-59
2023/02/12 06:54:19;;;;;;;190.00;55.25;;;;;;;3.43;100.00;101482.31;5047296;28;20025;-59
2023/02/12 06:56:45;;;;;;;236.93;68.18;;;;;;;3.42;100.00;101479.78;5041457;28;20442;-59
2023/02/12 06:59:13;;;;;;;192.85;56.60;;;;;;;3.47;100.00;101477.59;5039310;28;20032;-59
2023/02/12 07:01:38;;;;;;;178.95;54.17;;;;;;;3.42;100.00;101472.72;5036525;28;20040;-59
2023/02/12 07:04:04;;;;;;;190.35;53.20;;;;;;;3.42;100.00;101480.66;5038999;28;20447;-59
2023/02/12 07:06:30;;;;;;;179.77;53.70;;;;;;;3.44;100.00;101478.72;5044916;28;20112;-59
2023/02/12 07:08:56;;;;;;;184.35;51.53;;;;;;;3.48;100.00;101471.28;5079243;28;20441;-59
2023/02/12 07:11:23;;;;;;;173.40;51.15;;;;;;;3.45;100.00;101467.13;5041304;28;20071;-60
2023/02/12 07:13:48;;;;;;;170.07;50.42;;;;;;;3.43;100.00;101473.53;5042028;28;20017;-59
2023/02/12 07:16:14;;;;;;;195.50;54.28;;;;;;;3.45;100.00;101476.88;5037864;28;20036;-59
2023/02/12 07:18:40;;;;;;;188.93;49.88;;;;;;;3.47;100.00;101477.59;5041409;28;20036;-58
2023/02/12 07:21:06;;;;;;;183.38;50.42;;;;;;;3.53;100.00;101484.97;5036983;28;20598;-59
2023/02/12 07:23:31;;;;;;;160.95;45.45;;;;;;;3.54;100.00;101486.63;5045339;28;20113;-59
2023/02/12 07:25:58;;;;;;;173.07;51.35;;;;;;;3.50;100.00;101487.91;5042378;28;20108;-58
2023/02/12 07:28:23;;;;;;;175.50;51.35;;;;;;;3.52;100.00;101493.03;5035433;28;20021;-58
2023/02/12 07:30:49;;;;;;;165.07;48.28;;;;;;;3.54;100.00;101494.56;5056265;28;20029;-58
2023/02/12 07:33:14;;;;;;;165.43;48.85;;;;;;;3.51;100.00;101497.53;5045043;28;20091;-58
2023/02/12 07:35:40;;;;;;;158.75;48.30;;;;;;;3.55;100.00;101501.56;5043690;28;20021;-58
2023/02/12 07:38:05;;;;;;;159.43;48.25;;;;;;;3.54;100.00;101499.88;5070469;28;20022;-60
2023/02/12 07:40:31;;;;;;;152.30;48.17;;;;;;;3.61;100.00;101501.00;5043237;28;20033;-60
2023/02/12 07:42:56;;;;;;;157.10;47.88;;;;;;;3.60;100.00;101509.13;5046457;28;20467;-60
2023/02/12 07:45:21;;;;;;;156.32;47.22;;;;;;;3.61;100.00;101500.16;5042483;28;20081;-60
2023/02/12 07:47:47;;;;;;;160.68;46.78;;;;;;;3.64;100.00;101500.72;5049187;28;20020;-60
2023/02/12 07:50:12;;;;;;;174.43;49.38;;;;;;;3.66;100.00;101503.22;5038300;28;20507;-59
2023/02/12 07:52:38;;;;;;;157.40;46.38;;;;;;;3.69;100.00;101510.91;5042373;28;20622;-60
2023/02/12 07:55:03;;;;;;;156.88;49.67;;;;;;;3.73;100.00;101508.81;5032864;28;20036;-60
2023/02/12 07:57:29;;;;;;;153.18;48.58;;;;;;;3.70;100.00;101503.81;5039906;28;20021;-60
2023/02/12 07:59:54;;;;;;;156.63;46.03;;;;;;;3.81;100.00;101503.63;5037541;28;20040;-59
2023/02/12 08:02:20;;;;;;;145.77;48.08;;;;;;;3.80;100.00;101494.84;5039711;28;20032;-59
2023/02/12 08:04:45;;;;;;;158.70;48.75;;;;;;;3.87;100.00;101495.13;5045289;28;20029;-59
2023/02/12 08:07:11;;;;;;;172.75;50.30;;;;;;;3.96;100.00;101504.84;5044132;28;20032;-58
2023/02/12 08:09:36;;;;;;;157.23;47.95;;;;;;;3.89;100.00;101506.38;5044479;28;20064;-59
2023/02/12 08:12:01;;;;;;;156.20;47.90;;;;;;;3.86;100.00;101504.84;5038248;28;20026;-58
2023/02/12 08:14:27;;;;;;;157.30;49.38;;;;;;;3.98;100.00;101508.19;5038786;28;20033;-58
2023/02/12 08:16:52;;;;;;;165.13;48.95;;;;;;;4.00;100.00;101500.94;5033535;28;20111;-58
2023/02/12 08:19:18;;;;;;;148.82;47.92;;;;;;;4.14;100.00;101507.56;5045428;28;20478;-58
2023/02/12 08:21:43;;;;;;;166.25;50.13;;;;;;;4.28;100.00;101504.47;5039773;28;20198;-59
2023/02/12 08:24:09;;;;;;;149.77;47.10;;;;;;;4.44;100.00;101498.53;5039516;28;20464;-59
2023/02/12 08:26:36;;;;;;;157.80;50.28;;;;;;;4.56;100.00;101503.66;5029029;28;20032;-59
2023/02/12 08:29:03;;;;;;;143.70;48.75;;;;;;;4.68;100.00;101507.78;5045584;28;20083;-59
2023/02/12 08:31:33;;;;;;;157.20;49.63;;;;;;;4.53;100.00;101508.25;5045687;28;20028;-58
2023/02/12 08:33:59;;;;;;;157.10;50.00;;;;;;;4.80;100.00;101509.25;5045696;28;20025;-58
2023/02/12 08:36:26;;;;;;;153.52;49.38;;;;;;;4.84;100.00;101504.47;5041612;28;20528;-59
2023/02/12 08:38:52;;;;;;;164.75;52.20;;;;;;;4.95;100.00;101502.44;5041030;28;20029;-59
2023/02/12 08:41:22;;;;;;;155.45;50.25;;;;;;;5.10;100.00;101510.72;5043741;28;20037;-59
2023/02/12 08:43:48;;;;;;;150.27;49.95;;;;;;;5.03;100.00;101511.50;5037660;28;20064;-58
2023/02/12 08:46:21;;;;;;;154.32;48.92;;;;;;;5.14;100.00;101517.44;5049877;28;20480;-58
2023/02/12 08:48:47;;;;;;;165.63;48.72;;;;;;;5.09;100.00;101514.38;5039469;28;20034;-58
2023/02/12 08:51:17;;;;;;;159.60;52.83;;;;;;;5.12;100.00;101518.56;5041631;28;20117;-59
2023/02/12 08:53:44;;;;;;;134.80;46.38;;;;;;;5.21;100.00;101522.97;5047495;28;20471;-58
2023/02/12 08:56:10;;;;;;;160.70;52.97;;;;;;;5.20;100.00;101521.31;5049804;28;20358;-59
2023/02/12 08:58:36;;;;;;;165.45;54.17;;;;;;;5.24;100.00;101525.34;5036806;28;20025;-59
2023/02/12 09:01:02;;;;;;;162.27;54.20;;;;;;;5.14;100.00;101522.75;5041275;28;20068;-59
2023/02/12 09:03:27;;;;;;;178.80;53.30;;;;;;;5.25;100.00;101520.84;5048458;28;20374;-59
2023/02/12 09:05:53;;;;;;;156.48;53.13;;;;;;;5.32;100.00;101525.41;5037329;28;20022;-59
2023/02/12 09:08:18;;;;;;;170.65;59.28;;;;;;;5.49;100.00;101515.75;5046283;28;20020;-59
2023/02/12 09:10:44;;;;;;;174.23;58.05;;;;;;;5.74;100.00;101515.94;5041570;28;20132;-60
2023/02/12 09:13:10;;;;;;;173.00;57.05;;;;;;;5.78;100.00;101515.47;5038855;28;20533;-58
2023/02/12 09:15:42;;;;;;;168.98;58.55;;;;;;;6.04;100.00;101520.84;5041825;28;20387;-58
2023/02/12 09:18:09;;;;;;;164.57;54.40;;;;;;;5.81;100.00;101524.97;5040812;28;20028;-60
2023/02/12 09:20:36;;;;;;;197.80;64.07;;;;;;;5.52;100.00;101522.59;5043504;28;20033;-58
2023/02/12 09:23:02;;;;;;;163.43;56.60;;;;;;;5.61;100.00;101530.47;5042207;28;20108;-58
2023/02/12 09:25:27;;;;;;;167.40;57.67;;;;;;;5.81;100.00;101524.97;5051886;28;20360;-58
2023/02/12 09:27:54;;;;;;;186.68;61.63;;;;;;;6.19;100.00;101523.78;5033845;28;20483;-58
2023/02/12 09:30:19;;;;;;;156.48;51.60;;;;;;;6.11;100.00;101515.72;5045054;28;20103;-58
2023/02/12 09:32:45;;;;;;;169.07;55.80;;;;;;;6.21;100.00;101516.44;5041472;28;20111;-58
2023/02/12 09:35:11;;;;;;;153.93;53.95;;;;;;;6.48;100.00;101527.91;5041408;28;20455;-58
2023/02/12 09:37:38;;;;;;;149.13;47.83;;;;;;;6.80;100.00;101527.22;5035462;28;20041;-58
2023/02/12 09:40:05;;;;;;;163.95;55.67;;;;;;;6.79;100.00;101527.34;5037451;28;20037;-58
2023/02/12 09:42:31;;;;;;;158.25;51.70;;;;;;;6.96;98.58;101529.06;5042741;28;20040;-59
2023/02/12 09:45:15;;;;;;;188.50;56.67;;;;;;;6.43;100.00;101530.22;5034063;28;20025;-58
2023/02/12 09:47:51;;;;;;;179.52;51.65;;;;;;;6.08;100.00;101534.69;5040067;28;20036;-58
2023/02/12 09:50:39;;;;;;;190.23;56.20;;;;;;;6.21;100.00;101532.41;5021383;28;20460;-58
2023/02/12 09:53:04;;;;;;;172.95;52.05;;;;;;;6.35;100.00;101538.16;5035907;28;20021;-58
2023/02/12 09:55:31;;;;;;;193.32;54.08;;;;;;;6.53;100.00;101535.44;5035568;28;20578;-58
2023/02/12 09:57:58;;;;;;;200.45;52.30;;;;;;;6.30;100.00;101533.31;5020174;28;20155;-58
2023/02/12 10:00:24;;;;;;;211.07;55.78;;;;;;;6.15;100.00;101535.72;5009035;28;20048;-59
2023/02/12 10:02:51;;;;;;;213.85;55.92;;;;;;;6.05;100.00;101532.34;5042766;28;20025;-59
2023/02/12 10:05:23;;;;;;;183.82;52.50;;;;;;;6.28;100.00;101532.63;5045265;28;20048;-58
2023/02/12 10:08:26;;;;;;;196.65;54.25;;;;;;;6.73;100.00;101536.00;5026017;28;20044;-58
2023/02/12 10:11:11;;;;;;;182.57;52.38;;;;;;;6.84;100.00;101539.22;5040185;28;20032;-58
2023/02/12 10:13:55;;;;;;;202.18;53.88;;;;;;;6.69;100.00;101536.34;5040093;28;20116;-59
2023/02/12 10:16:42;;;;;;;197.68;54.60;;;;;;;6.78;100.00;101541.69;5039474;28;20025;-58
2023/02/12 10:19:07;;;;;;;210.15;50.47;;;;;;;6.66;100.00;101542.00;5043390;28;20033;-59
2023/02/12 10:21:51;;;;;;;195.68;52.55;;;;;;;6.94;100.00;101543.56;5046420;28;20091;-58
2023/02/12 10:24:40;;;;;;;202.48;49.65;;;;;;;6.95;100.00;101543.41;5051894;28;20056;-58
2023/02/12 10:27:15;;;;;;;195.43;55.63;;;;;;;6.85;100.00;101542.72;5028027;28;20433;-58
2023/02/12 10:29:42;;;;;;;208.57;51.83;;;;;;;6.47;100.00;101542.25;5036172;28;20051;-58
2023/02/12 10:32:17;;;;;;;202.98;54.17;;;;;;;6.55;100.00;101544.94;5039049;28;20136;-58
2023/02/12 10:34:43;;;;;;;204.95;54.13;;;;;;;6.59;100.00;101546.28;5031732;28;20048;-58
2023/02/12 10:37:19;;;;;;;202.60;51.83;;;;;;;6.75;100.00;101552.69;5037982;28;20018;-58
2023/02/12 10:39:49;;;;;;;185.85;52.33;;;;;;;7.01;100.00;101550.75;5042587;28;20067;-58
2023/02/12 10:42:21;;;;;;;180.23;51.88;;;;;;;6.91;100.00;101550.06;5040952;28;20051;-58
2023/02/12 10:44:46;;;;;;;196.73;50.33;;;;;;;6.88;100.00;101543.22;5023331;28;20029;-58
2023/02/12 10:47:20;;;;;;;197.90;52.42;;;;;;;6.92;100.00;101543.75;5065823;28;20503;-58
2023/02/12 10:49:47;;;;;;;187.93;48.42;;;;;;;7.26;100.00;101540.16;5037507;28;20020;-59
2023/02/12 10:52:29;;;;;;;190.25;48.58;;;;;;;7.39;100.00;101543.19;5022438;28;20383;-59
2023/02/12 10:54:54;;;;;;;172.40;46.97;;;;;;;7.52;99.56;101532.84;5040229;28;20087;-59
2023/02/12 10:57:20;;;;;;;222.15;55.13;;;;;;;7.34;100.00;101529.50;5040014;28;20421;-59
2023/02/12 10:59:46;;;;;;;177.18;46.50;;;;;;;7.31;100.00;101529.81;5045119;28;20056;-58
2023/02/12 11:02:22;;;;;;;175.95;47.88;;;;;;;7.50;100.00;101534.84;5045470;28;20025;-58
2023/02/12 11:04:47;;;;;;;181.23;51.05;;;;;;;7.48;99.32;101523.50;5043522;28;20092;-59
2023/02/12 11:07:13;;;;;;;163.75;46.95;;;;;;;7.48;98.99;101530.69;5037502;28;20346;-58
2023/02/12 11:09:44;;;;;;;155.82;45.40;;;;;;;7.00;100.00;101522.44;5034749;28;20033;-58
2023/02/12 11:12:21;;;;;;;154.30;44.22;;;;;;;7.02;100.00;101520.44;5049024;28;20818;-58
2023/02/12 11:14:51;;;;;;;144.57;41.85;;;;;;;6.76;100.00;101523.19;5047616;28;20061;-59